Time;durP1;ratioP1;P1;durP2;ratioP2;P2;SDS_P1;SDS_P2;PMS_P1;PMS_P2;Temp;Humidity;BMP_temperature;BMP_pressure;BME280_temperature;BME280_humidity;BME280_pressure;Samples;Min_cycle;Max_cycle;Signal;HPM_P1;HPM_P2
2023/03/15 00:01:10;;;;;;;7.37;1.90;;;5.60;70.00;;;8.18;49.78;100677.38;5114305;28;20204;-56
2023/03/15 00:03:38;;;;;;;5.57;2.03;;;5.50;69.80;;;8.19;50.01;100693.94;5114545;28;20223;-54
2023/03/15 00:06:06;;;;;;;9.57;1.70;;;5.40;70.20;;;8.18;50.08;100693.13;5114786;28;20183;-54
2023/03/15 00:08:33;;;;;;;4.97;2.53;;;5.40;70.30;;;8.18;49.97;100692.28;5113342;28;20216;-55
2023/03/15 00:11:01;;;;;;;5.30;2.20;;;5.40;70.40;;;8.17;49.88;100720.31;5114780;28;20188;-57
2023/03/15 00:13:30;;;;;;;3.83;1.87;;;5.40;70.60;;;8.17;49.98;100735.22;5114712;28;20679;-55
2023/03/15 00:16:01;;;;;;;4.77;1.83;;;5.30;70.50;;;8.15;50.00;100735.38;5113984;28;20538;-57
2023/03/15 00:18:29;;;;;;;5.47;2.30;;;5.30;70.70;;;8.19;50.13;100738.50;5113887;28;20638;-56
2023/03/15 00:20:57;;;;;;;4.43;1.87;;;5.30;71.00;;;8.20;50.04;100733.09;5114588;28;20496;-54
2023/03/15 00:23:24;;;;;;;8.00;2.43;;;5.30;71.20;;;8.20;50.26;100727.84;5113953;28;20607;-57
2023/03/15 00:25:52;;;;;;;5.17;2.07;;;5.30;71.70;;;8.24;50.52;100728.38;5114178;28;20187;-55
2023/03/15 00:28:20;;;;;;;4.63;1.83;;;5.40;72.70;;;8.30;50.73;100729.53;5112582;28;20620;-56
2023/03/15 00:30:48;;;;;;;6.77;2.10;;;5.40;72.00;;;8.30;50.40;100732.16;5114097;28;20667;-56
2023/03/15 00:33:16;;;;;;;6.10;2.33;;;5.40;71.50;;;8.32;50.18;100735.47;5113709;28;20241;-56
2023/03/15 00:35:44;;;;;;;5.63;2.03;;;5.40;71.30;;;8.33;50.57;100731.84;5114201;28;20199;-56
2023/03/15 00:38:13;;;;;;;7.47;2.03;;;5.50;71.50;;;8.33;50.22;100737.09;5114308;28;20189;-55
2023/03/15 00:40:40;;;;;;;5.20;1.87;;;5.40;71.10;;;8.34;50.40;100734.34;5110401;28;20215;-57
2023/03/15 00:43:07;;;;;;;5.57;1.80;;;5.50;71.80;;;8.37;51.29;100739.22;5094121;28;20206;-57
2023/03/15 00:45:34;;;;;;;3.77;1.70;;;5.50;72.30;;;8.43;50.98;100743.03;5093850;28;20188;-57
2023/03/15 00:48:03;;;;;;;4.87;2.10;;;5.60;72.50;;;8.51;50.95;100745.69;5113187;28;20229;-56
2023/03/15 00:50:30;;;;;;;3.03;1.63;;;5.60;71.90;;;8.55;50.43;100747.00;5130051;27;20230;-56
2023/03/15 00:52:56;;;;;;;6.73;2.20;;;5.70;71.50;;;8.58;50.67;100736.19;5113663;28;20220;-54
2023/03/15 00:55:23;;;;;;;6.20;2.20;;;5.70;71.50;;;8.61;50.10;100741.09;5114064;28;20578;-56
2023/03/15 00:57:50;;;;;;;6.47;1.90;;;5.80;70.80;;;8.60;49.76;100750.78;5112060;28;20256;-56
2023/03/15 01:00:23;;;;;;;7.57;2.30;;;5.80;70.40;;;8.56;49.73;100748.63;5113883;28;20241;-55
2023/03/15 01:02:51;;;;;;;5.70;1.80;;;5.70;70.20;;;8.53;49.71;100752.41;5113860;28;20586;-56
2023/03/15 01:05:20;;;;;;;5.83;2.13;;;5.70;70.30;;;8.49;49.50;100763.34;5114313;28;20262;-57
2023/03/15 01:07:48;;;;;;;3.53;1.47;;;5.70;70.30;;;8.47;49.69;100754.81;5113550;28;20236;-57
2023/03/15 01:10:16;;;;;;;10.60;2.17;;;5.60;70.30;;;8.46;49.63;100753.19;5113367;28;20185;-55
2023/03/15 01:12:44;;;;;;;6.90;1.90;;;5.60;70.50;;;8.44;49.88;100755.16;5107688;28;20573;-56
2023/03/15 01:15:13;;;;;;;3.63;1.77;;;5.60;70.60;;;8.42;49.69;100760.56;5093523;28;20193;-55
2023/03/15 01:17:41;;;;;;;7.43;1.80;;;5.60;70.80;;;8.41;49.72;100763.34;5111950;28;20204;-53
2023/03/15 01:20:12;;;;;;;4.53;1.63;;;5.50;70.80;;;8.46;49.89;100779.44;5117533;28;20191;-54
2023/03/15 01:22:40;;;;;;;4.90;1.80;;;5.50;71.20;;;8.54;49.92;100782.06;5117537;28;20185;-56
2023/03/15 01:25:08;;;;;;;4.93;1.73;;;5.50;71.40;;;8.60;49.93;100779.63;5118070;28;20546;-56
2023/03/15 01:27:36;;;;;;;5.07;1.53;;;5.60;71.40;;;8.66;50.06;100786.03;5117579;28;20676;-56
2023/03/15 01:30:05;;;;;;;5.80;1.90;;;5.60;71.60;;;8.73;49.62;100794.88;5101513;28;20225;-56
2023/03/15 01:32:32;;;;;;;5.03;1.87;;;5.60;71.50;;;8.78;49.65;100797.84;5096777;28;20238;-56
2023/03/15 01:34:59;;;;;;;5.70;1.53;;;5.70;71.50;;;8.85;49.62;100801.47;5097316;28;20186;-56
2023/03/15 01:37:26;;;;;;;5.23;1.77;;;5.70;71.60;;;8.88;49.47;100801.16;5097042;28;20192;-55
2023/03/15 01:39:55;;;;;;;2.90;2.00;;;5.80;71.40;;;8.91;49.67;100806.09;5097053;28;20190;-55
2023/03/15 01:42:22;;;;;;;3.80;1.67;;;5.80;71.50;;;8.97;49.90;100802.81;5100039;28;21040;-56
2023/03/15 01:44:55;;;;;;;5.50;1.80;;;5.90;71.80;;;9.03;49.68;100799.53;5116474;28;20213;-56
2023/03/15 01:47:25;;;;;;;4.70;1.87;;;5.90;71.50;;;9.08;49.33;100797.22;5117620;28;20176;-54
2023/03/15 01:50:01;;;;;;;4.83;2.00;;;6.00;71.30;;;9.11;49.48;100802.16;5117249;28;20549;-55
2023/03/15 01:52:34;;;;;;;4.90;1.80;;;6.00;71.20;;;9.13;49.25;100800.19;5116629;28;20548;-56
2023/03/15 01:55:09;;;;;;;3.27;1.53;;;6.10;71.00;;;9.16;48.95;100810.38;5117103;28;20202;-56
2023/03/15 01:57:40;;;;;;;8.80;2.00;;;6.10;71.00;;;9.19;49.14;100820.56;5117171;28;20233;-56
2023/03/15 02:00:12;;;;;;;6.37;2.10;;;6.20;70.80;;;9.19;49.30;100820.56;5117084;28;20197;-57
2023/03/15 02:02:48;;;;;;;3.07;1.63;;;6.20;70.80;;;9.20;49.70;100822.19;5102377;28;20616;-56
2023/03/15 02:05:22;;;;;;;6.07;1.97;;;6.20;71.20;;;9.23;49.35;100827.09;5096683;28;20173;-57
2023/03/15 02:07:53;;;;;;;4.13;2.03;;;6.20;71.30;;;9.25;49.90;100825.13;5096668;28;20640;-54
2023/03/15 02:10:29;;;;;;;5.53;2.10;;;6.20;71.50;;;9.24;49.66;100828.75;5096378;28;20184;-56
2023/03/15 02:12:58;;;;;;;6.77;1.90;;;6.20;71.50;;;9.21;49.85;100839.59;5096025;28;20749;-57
2023/03/15 02:15:25;;;;;;;6.00;1.73;;;6.20;71.50;;;9.20;49.67;100837.13;5096077;28;20196;-55
2023/03/15 02:17:52;;;;;;;7.00;2.27;;;6.20;71.80;;;9.19;49.90;100846.81;5113138;28;20220;-56
2023/03/15 02:20:33;;;;;;;5.50;2.00;;;6.20;72.20;;;9.19;50.25;100849.44;5096033;28;20647;-54
2023/03/15 02:23:05;;;;;;;4.50;1.70;;;6.20;72.40;;;9.22;50.28;100846.47;5095865;28;20208;-56
2023/03/15 02:25:44;;;;;;;5.83;1.80;;;6.20;72.40;;;9.24;49.84;100849.78;5096119;28;20189;-56
2023/03/15 02:28:15;;;;;;;3.20;1.63;;;6.20;72.70;;;9.25;50.60;100859.28;5096462;28;20215;-54
2023/03/15 02:30:44;;;;;;;6.10;1.87;;;6.20;73.30;;;9.25;50.50;100861.91;5095292;28;20179;-55
2023/03/15 02:33:21;;;;;;;5.63;1.73;;;6.20;73.40;;;9.21;50.93;100865.84;5104349;28;20212;-55
2023/03/15 02:35:48;;;;;;;3.00;1.53;;;6.20;73.80;;;9.22;50.85;100869.28;5116697;28;20691;-56
2023/03/15 02:38:15;;;;;;;5.07;1.87;;;6.20;74.00;;;9.18;50.95;100863.53;5115960;28;20182;-54
2023/03/15 02:40:45;;;;;;;6.80;1.80;;;6.20;73.90;;;9.16;51.27;100854.19;5116046;28;20192;-55
2023/03/15 02:43:18;;;;;;;6.00;2.30;;;6.20;74.40;;;9.11;51.05;100859.91;5115820;28;20208;-54
2023/03/15 02:45:46;;;;;;;5.07;1.50;;;6.20;74.40;;;9.10;51.56;100858.28;5116866;28;20201;-58
2023/03/15 02:48:15;;;;;;;7.73;2.00;;;6.10;74.60;;;9.06;51.72;100864.81;5105108;27;20207;-56
2023/03/15 02:50:42;;;;;;;4.10;1.70;;;6.10;74.30;;;9.01;51.99;100869.72;5118406;28;20190;-56
2023/03/15 02:53:11;;;;;;;13.73;2.73;;;6.10;74.40;;;8.98;51.87;100875.34;5116291;28;20223;-54
2023/03/15 02:55:38;;;;;;;6.33;1.97;;;6.10;74.70;;;8.94;51.81;100879.22;5116159;28;20198;-55
2023/03/15 02:58:05;;;;;;;3.60;1.77;;;6.00;74.60;;;8.90;51.77;100875.31;5115845;28;20200;-54
2023/03/15 03:00:34;;;;;;;9.03;2.37;;;6.00;74.80;;;8.85;52.27;100874.94;5116139;28;20255;-55
2023/03/15 03:03:01;;;;;;;7.33;2.10;;;5.90;75.10;;;8.77;52.13;100875.75;5107693;28;20214;-55
2023/03/15 03:05:28;;;;;;;6.67;1.70;;;5.90;75.40;;;8.70;52.39;100881.81;5096049;28;20581;-55
2023/03/15 03:07:55;;;;;;;6.03;2.37;;;5.80;75.40;;;8.64;52.90;100879.81;5095873;28;20194;-55
2023/03/15 03:10:22;;;;;;;3.27;1.77;;;5.80;75.70;;;8.59;52.84;100885.53;5096700;28;20194;-57
2023/03/15 03:12:52;;;;;;;6.73;1.97;;;5.70;76.00;;;8.55;52.81;100901.75;5095282;28;20217;-54
2023/03/15 03:15:20;;;;;;;3.93;1.93;;;5.70;76.00;;;8.49;52.91;100910.22;5095543;28;20182;-56
2023/03/15 03:17:48;;;;;;;6.73;2.37;;;5.60;76.20;;;8.46;53.16;100910.56;5114835;28;20201;-56
2023/03/15 03:20:15;;;;;;;8.40;2.40;;;5.60;76.40;;;8.43;53.10;100926.59;5098298;28;20200;-55
2023/03/15 03:22:43;;;;;;;6.97;2.30;;;5.60;76.30;;;8.39;53.13;100925.28;5095141;28;20189;-54
2023/03/15 03:25:11;;;;;;;9.33;2.20;;;5.50;76.60;;;8.37;53.25;100942.97;5095466;28;20307;-59
2023/03/15 03:27:39;;;;;;;5.73;1.93;;;5.50;76.80;;;8.35;53.18;100935.25;5095635;28;20214;-55
2023/03/15 03:30:10;;;;;;;6.60;2.07;;;5.50;76.90;;;8.40;53.61;100947.88;5095265;28;20674;-54
2023/03/15 03:32:38;;;;;;;6.73;2.07;;;5.50;77.50;;;8.45;53.56;100956.09;5100159;28;20198;-54
2023/03/15 03:35:08;;;;;;;6.87;2.13;;;5.50;77.60;;;8.48;53.51;100955.81;5114883;28;20255;-55
2023/03/15 03:37:35;;;;;;;4.53;1.90;;;5.50;77.60;;;8.53;53.46;100969.28;5114182;28;20534;-55
2023/03/15 03:40:05;;;;;;;5.43;2.17;;;5.50;77.70;;;8.57;53.68;100965.38;5115616;28;20215;-54
2023/03/15 03:42:33;;;;;;;6.17;2.33;;;5.50;77.70;;;8.62;53.62;100974.41;5115006;27;20185;-54
2023/03/15 03:45:00;;;;;;;5.50;2.00;;;5.60;78.10;;;8.71;53.58;100972.66;5115226;28;20204;-56
2023/03/15 03:47:27;;;;;;;7.40;2.17;;;5.60;77.90;;;8.74;53.61;100977.59;5113409;28;20195;-56
2023/03/15 03:49:54;;;;;;;5.33;1.87;;;5.60;77.80;;;8.74;53.31;100978.41;5115147;28;20219;-56
2023/03/15 03:52:22;;;;;;;6.67;2.30;;;5.70;77.60;;;8.74;53.33;100985.47;5114900;28;20635;-54
2023/03/15 03:54:49;;;;;;;5.83;2.10;;;5.70;77.40;;;8.70;53.39;100978.91;5114963;28;20219;-54
2023/03/15 03:57:16;;;;;;;6.43;2.40;;;5.70;77.20;;;8.65;53.45;100983.78;5113935;28;20195;-56
2023/03/15 03:59:43;;;;;;;5.53;2.10;;;5.70;77.10;;;8.62;53.55;100978.84;5112370;28;20201;-54
2023/03/15 04:02:10;;;;;;;7.53;2.80;;;5.70;77.10;;;8.59;53.52;100992.25;5093986;28;20199;-55
2023/03/15 04:04:40;;;;;;;7.63;1.67;;;5.70;77.20;;;8.53;53.70;100995.50;5094216;28;20735;-54
2023/03/15 04:07:07;;;;;;;3.23;1.73;;;5.70;77.20;;;8.49;53.81;100996.78;5094123;28;20273;-53
2023/03/15 04:09:36;;;;;;;5.17;1.77;;;5.60;77.30;;;8.44;53.92;101004.31;5093653;28;20282;-55
2023/03/15 04:12:05;;;;;;;4.53;1.80;;;5.60;77.30;;;8.42;53.97;101006.25;5094417;28;20225;-55
2023/03/15 04:14:32;;;;;;;5.57;1.90;;;5.60;77.60;;;8.40;54.06;101003.78;5105177;28;20209;-56
2023/03/15 04:17:02;;;;;;;5.53;1.97;;;5.60;78.80;;;8.40;54.09;101008.19;5110128;28;20278;-55
2023/03/15 04:19:29;;;;;;;6.07;2.87;;;5.50;78.20;;;8.37;54.15;101019.03;5110854;28;20194;-56
2023/03/15 04:21:56;;;;;;;7.87;2.53;;;5.50;77.90;;;8.35;54.08;101028.81;5094460;28;20571;-55
2023/03/15 04:24:23;;;;;;;3.77;1.90;;;5.50;78.10;;;8.31;53.67;101033.56;5093508;28;20213;-55
2023/03/15 04:26:56;;;;;;;5.60;1.97;;;5.50;77.90;;;8.30;54.11;101041.56;5094159;28;20193;-53
2023/03/15 04:29:23;;;;;;;3.30;1.73;;;5.40;78.30;;;8.27;54.38;101041.88;5109579;28;20273;-55
2023/03/15 04:31:50;;;;;;;5.33;2.17;;;5.40;78.60;;;8.27;54.68;101052.38;5103471;28;20269;-57
2023/03/15 04:34:17;;;;;;;5.23;1.90;;;5.40;78.70;;;8.26;54.73;101053.28;5114053;28;20213;-56
2023/03/15 04:36:44;;;;;;;7.00;2.43;;;5.40;79.00;;;8.24;54.75;101053.47;5114164;28;20185;-56
2023/03/15 04:39:11;;;;;;;3.57;1.90;;;5.30;78.80;;;8.23;54.84;101056.22;5114227;28;20189;-57
2023/03/15 04:41:38;;;;;;;10.93;2.40;;;5.30;79.00;;;8.24;55.20;101060.50;5106882;28;20219;-55
2023/03/15 04:44:06;;;;;;;4.90;1.83;;;5.30;79.20;;;8.24;54.76;101068.34;5096019;28;20213;-56
2023/03/15 04:46:33;;;;;;;5.43;1.97;;;5.30;79.30;;;8.22;54.75;101076.38;5097126;28;20203;-57
2023/03/15 04:49:02;;;;;;;6.23;2.30;;;5.30;79.50;;;8.22;55.02;101076.38;5097072;28;20212;-57
2023/03/15 04:51:29;;;;;;;3.33;1.73;;;5.30;79.60;;;8.22;54.86;101078.19;5096772;28;20254;-54
2023/03/15 04:53:56;;;;;;;4.20;2.10;;;5.30;79.50;;;8.21;54.98;101082.59;5098084;28;20631;-55
2023/03/15 04:56:23;;;;;;;3.80;1.93;;;5.30;79.40;;;8.18;55.02;101080.25;5115186;28;20254;-56
2023/03/15 04:58:50;;;;;;;3.20;1.60;;;5.30;79.30;;;8.14;54.97;101089.41;5120241;28;20188;-55
2023/03/15 05:01:18;;;;;;;4.43;2.30;;;5.30;79.20;;;8.08;55.07;101090.03;5118001;28;20189;-57
2023/03/15 05:03:45;;;;;;;6.40;2.50;;;5.20;79.00;;;8.02;55.12;101096.69;5117984;27;20651;-56
2023/03/15 05:06:12;;;;;;;6.30;2.43;;;5.20;79.10;;;7.96;54.94;101094.63;5118071;28;20192;-58
2023/03/15 05:08:39;;;;;;;8.27;2.33;;;5.10;79.00;;;7.92;55.82;101095.09;5114278;28;20216;-54
2023/03/15 05:11:06;;;;;;;9.97;3.27;;;5.10;79.30;;;7.89;55.09;101101.44;5097312;28;20192;-56
2023/03/15 05:13:33;;;;;;;7.57;2.07;;;5.00;79.50;;;7.86;55.48;101099.16;5097235;28;20983;-56
2023/03/15 05:16:00;;;;;;;3.87;2.07;;;5.00;79.90;;;7.83;55.45;101107.28;5100876;28;20250;-55
2023/03/15 05:18:28;;;;;;;6.70;2.37;;;5.00;79.80;;;7.81;55.46;101109.25;5117482;27;20548;-55
2023/03/15 05:20:55;;;;;;;5.53;2.30;;;4.90;80.00;;;7.79;55.90;101108.56;5133717;27;20255;-55
2023/03/15 05:23:23;;;;;;;8.13;3.13;;;4.90;79.90;;;7.75;55.70;101104.56;5117014;28;20213;-57
2023/03/15 05:25:54;;;;;;;4.53;2.47;;;4.90;80.10;;;7.73;55.86;101124.84;5117947;28;20254;-55
2023/03/15 05:28:23;;;;;;;4.43;2.67;;;4.90;80.30;;;7.69;56.01;101126.13;5117822;28;20203;-55
2023/03/15 05:30:52;;;;;;;7.40;2.23;;;4.80;80.00;;;7.66;55.89;101128.19;5117756;28;20203;-54
2023/03/15 05:33:20;;;;;;;5.43;2.27;;;4.80;80.20;;;7.62;56.05;101130.31;5117583;28;20215;-55
2023/03/15 05:35:48;;;;;;;4.10;2.23;;;4.80;80.40;;;7.58;56.51;101134.19;5117699;28;20246;-57
2023/03/15 05:38:15;;;;;;;6.23;1.70;;;4.80;80.20;;;7.56;56.26;101140.53;5117531;28;20188;-56
2023/03/15 05:40:43;;;;;;;5.47;2.47;;;4.70;80.30;;;7.55;55.83;101144.94;5116154;28;20614;-57
2023/03/15 05:43:11;;;;;;;6.97;3.10;;;4.70;80.70;;;7.53;56.10;101152.94;5116964;27;20286;-54
2023/03/15 05:45:39;;;;;;;9.30;2.97;;;4.70;80.60;;;7.51;56.34;101159.31;5117624;28;20287;-57
2023/03/15 05:48:06;;;;;;;6.67;2.50;;;4.70;80.90;;;7.48;56.78;101170.91;5117957;28;20260;-57
2023/03/15 05:50:35;;;;;;;3.77;2.30;;;4.70;80.80;;;7.45;56.65;101176.41;5113187;28;20208;-60
2023/03/15 05:53:03;;;;;;;4.27;2.20;;;4.60;81.00;;;7.46;56.96;101182.47;5119937;28;20568;-56
2023/03/15 05:55:30;;;;;;;8.00;3.20;;;4.70;81.40;;;7.47;57.00;101177.09;5118099;27;20586;-57
2023/03/15 05:57:57;;;;;;;5.73;2.43;;;4.60;81.60;;;7.48;56.56;101180.53;5117860;28;20200;-55
2023/03/15 06:00:24;;;;;;;6.20;2.70;;;4.60;81.40;;;7.49;56.73;101184.78;5117250;28;20230;-57
2023/03/15 06:02:51;;;;;;;5.07;2.67;;;4.60;81.50;;;7.49;57.07;101187.41;5116723;28;20209;-57
2023/03/15 06:05:18;;;;;;;6.30;2.43;;;4.60;81.50;;;7.50;57.35;101194.31;5114738;28;20308;-54
2023/03/15 06:07:46;;;;;;;5.80;2.83;;;4.60;81.60;;;7.51;56.67;101188.13;5117248;28;20194;-54
2023/03/15 06:10:14;;;;;;;5.23;2.00;;;4.60;81.60;;;7.53;56.68;101194.03;5116850;28;20687;-54
2023/03/15 06:12:41;;;;;;;5.20;2.23;;;4.60;81.60;;;7.53;56.89;101201.06;5116836;28;20185;-55
2023/03/15 06:15:10;;;;;;;6.83;2.47;;;4.60;81.60;;;7.53;56.62;101199.28;5117985;28;20467;-56
2023/03/15 06:17:37;;;;;;;6.97;2.60;;;4.60;81.70;;;7.51;56.76;101209.06;5116889;27;20192;-53
2023/03/15 06:20:05;;;;;;;5.20;2.40;;;4.60;81.80;;;7.51;56.88;101206.44;5116829;28;20670;-55
2023/03/15 06:22:32;;;;;;;8.73;2.57;;;4.60;81.90;;;7.51;57.30;101211.69;5116081;28;20189;-54
2023/03/15 06:24:59;;;;;;;3.43;2.07;;;4.60;81.90;;;7.53;56.86;101220.22;5116600;28;20206;-55
2023/03/15 06:27:28;;;;;;;6.50;2.47;;;4.60;82.00;;;7.54;56.99;101224.47;5116780;28;20654;-56
2023/03/15 06:29:56;;;;;;;7.17;2.30;;;4.60;82.00;;;7.55;57.13;101223.53;5116968;28;20236;-56
2023/03/15 06:32:23;;;;;;;9.40;2.73;;;4.70;82.00;;;7.55;57.04;101236.63;5112012;28;20250;-58
2023/03/15 06:34:51;;;;;;;8.87;2.30;;;4.60;81.80;;;7.55;57.10;101238.41;5110945;27;20305;-60
2023/03/15 06:37:18;;;;;;;6.03;2.40;;;4.60;81.90;;;7.53;57.34;101230.69;5096857;28;20204;-56
2023/03/15 06:40:06;;;;;;;5.47;1.70;;;4.70;81.90;;;7.56;56.86;101246.09;5096307;28;20173;-55
2023/03/15 06:42:34;;;;;;;6.80;3.03;;;4.60;82.00;;;7.60;57.38;101244.88;5096106;28;20264;-56
2023/03/15 06:45:02;;;;;;;5.30;2.20;;;4.70;82.20;;;7.63;56.83;101247.19;5108638;28;20291;-55
2023/03/15 06:47:29;;;;;;;4.40;1.70;;;4.70;82.10;;;7.65;57.08;101255.75;5115496;27;20241;-55
2023/03/15 06:49:56;;;;;;;5.10;2.23;;;4.80;82.00;;;7.71;57.11;101249.94;5116713;28;20698;-57
2023/03/15 06:52:23;;;;;;;5.97;1.93;;;4.80;82.00;;;7.84;56.95;101260.94;5115900;28;20198;-56
2023/03/15 06:54:50;;;;;;;6.17;2.17;;;4.80;82.40;;;8.03;56.83;101260.81;5106066;28;20216;-56
2023/03/15 06:57:17;;;;;;;8.30;2.30;;;4.90;82.60;;;8.32;57.14;101265.13;5116013;28;20229;-57
2023/03/15 06:59:45;;;;;;;4.43;2.00;;;5.10;82.90;;;8.69;56.78;101273.72;5115975;28;20255;-56
2023/03/15 07:02:15;;;;;;;7.10;2.13;;;5.30;83.00;;;9.09;56.50;101278.50;5115468;28;20189;-55
2023/03/15 07:04:44;;;;;;;2.23;1.50;;;5.60;82.80;;;9.44;55.26;101289.78;5106609;28;20224;-57
2023/03/15 07:07:11;;;;;;;8.00;2.47;;;5.90;82.00;;;9.71;55.05;101288.81;5111223;28;20286;-56
2023/03/15 07:09:39;;;;;;;5.33;1.70;;;6.30;80.60;;;9.79;53.51;101290.69;5095985;28;20220;-56
2023/03/15 07:12:09;;;;;;;4.47;2.10;;;6.50;78.10;;;9.73;52.71;101307.06;5097457;28;20207;-55
2023/03/15 07:14:36;;;;;;;8.83;2.33;;;6.70;76.60;;;9.70;52.57;101308.19;5102982;28;20319;-54
2023/03/15 07:17:04;;;;;;;5.80;2.17;;;6.70;75.90;;;9.75;52.67;101316.44;5114610;28;20734;-56
2023/03/15 07:19:31;;;;;;;4.63;1.60;;;6.80;75.60;;;9.99;53.04;101319.22;5116250;28;20710;-59
2023/03/15 07:21:58;;;;;;;6.33;2.40;;;6.80;75.50;;;10.44;52.46;101324.22;5094468;28;20189;-57
2023/03/15 07:24:27;;;;;;;9.10;2.03;;;7.00;76.00;;;10.95;51.67;101325.84;5101845;28;20203;-57
2023/03/15 07:26:55;;;;;;;3.80;1.60;;;7.30;75.60;;;11.45;50.86;101325.69;5115851;28;20203;-55
2023/03/15 07:29:23;;;;;;;7.63;2.00;;;7.60;75.60;;;11.79;48.90;101331.59;5114796;28;20269;-54
2023/03/15 07:31:51;;;;;;;5.00;1.90;;;8.00;73.00;;;11.88;48.35;101343.81;5115338;28;20558;-55
2023/03/15 07:34:20;;;;;;;4.07;1.70;;;8.20;72.00;;;11.99;48.29;101338.16;5112202;28;20216;-56
2023/03/15 07:36:47;;;;;;;5.30;2.00;;;8.40;70.30;;;12.02;47.41;101340.47;5110628;28;20543;-57
2023/03/15 07:39:15;;;;;;;8.80;2.20;;;8.50;69.50;;;11.88;46.44;101346.44;5095679;28;20180;-55
2023/03/15 07:41:42;;;;;;;3.90;2.30;;;8.60;68.60;;;11.67;46.67;101348.72;5095952;28;20192;-55
2023/03/15 07:44:08;;;;;;;5.53;1.83;;;8.50;66.60;;;11.44;46.12;101353.03;5094555;28;20217;-56
2023/03/15 07:46:35;;;;;;;4.77;1.80;;;8.40;66.40;;;11.21;47.12;101360.78;5095041;28;20192;-56
2023/03/15 07:49:03;;;;;;;6.63;2.07;;;8.20;66.60;;;11.08;47.02;101360.41;5095160;28;20189;-57
2023/03/15 07:51:31;;;;;;;3.73;1.60;;;8.10;67.10;;;11.24;47.20;101355.19;5095303;28;20692;-55
2023/03/15 07:53:58;;;;;;;16.17;5.07;;;8.00;67.60;;;11.61;46.79;101357.31;5094427;28;20220;-56
2023/03/15 07:56:25;;;;;;;10.80;1.93;;;8.10;67.80;;;12.05;45.95;101355.16;5114618;28;20192;-60
2023/03/15 07:58:52;;;;;;;7.30;1.90;;;8.20;67.00;;;12.38;44.90;101361.13;5115301;28;20529;-55
2023/03/15 08:01:20;;;;;;;4.67;2.00;;;8.50;66.90;;;12.83;44.37;101359.44;5115110;28;20183;-57
2023/03/15 08:03:47;;;;;;;7.00;1.97;;;8.80;67.70;;;13.39;43.55;101355.63;5113801;28;20215;-55
2023/03/15 08:06:14;;;;;;;5.97;2.07;;;9.20;66.10;;;13.91;42.87;101357.44;5114449;28;20203;-55
2023/03/15 08:08:42;;;;;;;8.97;3.93;;;9.60;64.10;;;14.51;41.60;101365.25;5114411;28;20598;-55
2023/03/15 08:11:09;;;;;;;4.53;1.97;;;10.00;62.40;;;15.11;40.29;101368.41;5114778;28;20208;-57
2023/03/15 08:13:36;;;;;;;6.40;2.17;;;10.50;59.80;;;15.54;39.16;101363.97;5113918;28;20215;-57
2023/03/15 08:16:04;;;;;;;3.93;1.37;;;10.90;58.30;;;15.84;37.36;101376.03;5113107;28;20191;-58
2023/03/15 08:18:31;;;;;;;3.70;1.60;;;11.30;55.70;;;15.99;36.42;101367.97;5114263;28;20272;-57
2023/03/15 08:20:58;;;;;;;4.37;1.43;;;11.70;55.30;;;16.15;36.38;101372.97;5114614;28;20192;-56
2023/03/15 08:23:25;;;;;;;2.93;1.53;;;11.90;53.30;;;16.35;35.86;101373.09;5113596;28;20270;-57
2023/03/15 08:25:53;;;;;;;3.73;1.70;;;12.20;52.50;;;16.59;35.06;101376.09;5112715;27;20188;-57
2023/03/15 08:28:20;;;;;;;4.27;1.87;;;12.40;51.70;;;16.94;34.75;101376.84;5113250;28;20195;-56
2023/03/15 08:30:48;;;;;;;4.43;1.90;;;12.60;50.70;;;17.27;33.83;101384.91;5114284;28;20574;-54
2023/03/15 08:33:15;;;;;;;5.37;1.80;;;12.90;50.20;;;17.66;33.34;101390.31;5112945;28;20279;-58
2023/03/15 08:35:41;;;;;;;5.80;2.27;;;13.10;49.60;;;18.27;33.05;101385.50;5096964;28;20210;-58
2023/03/15 08:38:08;;;;;;;2.70;1.60;;;13.40;49.80;;;19.10;31.30;101389.91;5094073;28;20211;-56
2023/03/15 08:40:36;;;;;;;8.10;4.70;;;13.90;48.00;;;19.73;31.10;101396.06;5102912;28;20600;-55
2023/03/15 08:43:06;;;;;;;8.70;3.77;;;14.30;48.10;;;20.41;30.09;101401.41;5113735;28;20226;-54
2023/03/15 08:45:33;;;;;;;5.00;1.67;;;14.80;46.20;;;20.88;29.39;101406.81;5112823;28;20215;-56
2023/03/15 08:48:20;;;;;;;5.43;2.27;;;15.30;45.10;;;21.14;27.59;101411.03;5113162;28;20195;-58
2023/03/15 08:50:47;;;;;;;6.37;2.33;;;15.70;41.80;;;21.36;28.18;101420.19;5108815;28;20299;-58
2023/03/15 08:53:14;;;;;;;3.57;1.70;;;16.00;41.30;;;21.87;27.52;101413.44;5093063;28;20212;-58
2023/03/15 08:55:41;;;;;;;8.33;3.87;;;16.40;41.50;;;22.54;26.94;101422.72;5093108;28;20208;-55
2023/03/15 08:58:11;;;;;;;5.77;2.10;;;16.80;40.60;;;23.02;26.30;101414.31;5093124;28;20606;-58
2023/03/15 09:00:39;;;;;;;4.87;2.00;;;17.30;39.70;;;23.29;25.08;101426.94;5115071;27;20671;-58
2023/03/15 09:03:06;;;;;;;7.73;3.17;;;17.60;37.40;;;23.57;24.56;101423.44;5117268;28;20299;-57
2023/03/15 09:05:33;;;;;;;5.03;2.63;;;18.00;36.20;;;24.16;22.63;101422.78;5115543;28;20434;-56
2023/03/15 09:08:00;;;;;;;5.27;2.27;;;18.10;34.90;;;24.15;23.01;101426.50;5126067;28;20187;-55
2023/03/15 09:10:28;;;;;;;4.67;2.37;;;18.40;34.40;;;24.35;22.84;101430.56;5120432;27;20563;-58
2023/03/15 09:12:55;;;;;;;7.87;2.20;;;18.50;34.00;;;24.49;22.59;101438.03;5115413;28;20240;-55
2023/03/15 09:15:23;;;;;;;4.70;1.80;;;18.70;33.60;;;24.73;22.02;101444.00;5113356;27;20295;-56
2023/03/15 09:17:51;;;;;;;5.70;2.20;;;19.00;32.50;;;24.93;22.44;101448.84;5108892;28;20189;-57
2023/03/15 09:20:21;;;;;;;4.07;1.70;;;19.20;33.00;;;24.95;21.60;101450.22;5103536;28;20230;-57
2023/03/15 09:22:51;;;;;;;5.10;2.03;;;19.20;31.70;;;25.03;21.37;101449.75;5099576;28;20224;-59
2023/03/15 09:25:19;;;;;;;6.77;2.67;;;19.30;31.10;;;25.25;21.48;101458.63;5101882;28;20229;-62
2023/03/15 09:27:47;;;;;;;4.70;1.90;;;19.50;31.60;;;25.60;21.75;101452.81;5102125;28;20529;-54
2023/03/15 09:30:15;;;;;;;7.28;2.22;;;19.70;31.30;;;25.97;20.20;101450.13;5106960;27;20937;-55
2023/03/15 09:32:45;;;;;;;5.70;2.03;;;19.80;30.70;;;25.75;20.54;101462.91;5115755;27;20192;-58
2023/03/15 09:35:14;;;;;;;5.17;2.00;;;20.00;30.50;;;25.41;19.88;101463.09;5112503;28;20769;-56
2023/03/15 09:37:41;;;;;;;4.67;1.83;;;19.80;29.00;;;25.14;20.22;101462.31;5115409;28;20207;-54
2023/03/15 09:40:18;;;;;;;6.43;2.33;;;19.60;28.90;;;25.32;20.83;101458.44;5118079;27;20192;-62
2023/03/15 09:43:00;;;;;;;4.93;2.30;;;19.70;29.40;;;25.72;20.53;101460.75;5123265;27;20192;-58
2023/03/15 09:45:49;;;;;;;2.57;1.90;;;19.90;30.00;;;26.42;20.63;101463.97;5124998;27;20701;-57
2023/03/15 09:48:26;;;;;;;3.93;2.10;;;20.20;30.10;;;27.03;20.04;101469.69;5112454;27;20640;-56
2023/03/15 09:51:00;;;;;;;7.30;2.47;;;20.60;29.60;;;26.94;19.24;101472.06;5108065;27;20222;-58
2023/03/15 09:53:32;;;;;;;7.53;2.10;;;20.80;28.60;;;26.47;19.29;101477.50;5119960;27;20533;-55
2023/03/15 09:55:59;;;;;;;4.53;1.80;;;20.80;28.20;;;25.99;19.28;101462.31;5121257;27;20202;-55
2023/03/15 09:58:31;;;;;;;3.47;2.00;;;20.80;28.00;;;25.21;20.42;101484.47;5127858;27;20199;-55
2023/03/15 10:01:03;;;;;;;6.90;2.00;;;20.60;27.90;;;24.13;19.90;101479.78;5106595;27;20274;-55
2023/03/15 10:03:44;;;;;;;5.80;3.30;;;19.80;26.70;;;22.80;21.24;101482.09;5112938;27;20298;-56
2023/03/15 10:06:19;;;;;;;4.00;2.23;;;19.20;27.60;;;21.71;21.84;101486.44;5114786;27;20207;-60
2023/03/15 10:08:55;;;;;;;4.25;1.77;;;18.40;27.80;;;21.42;22.84;101488.91;5104181;27;20450;-60
2023/03/15 10:11:38;;;;;;;7.25;2.53;;;17.80;28.70;;;22.16;22.73;101484.91;5106682;27;20447;-59
2023/03/15 10:14:26;;;;;;;3.23;1.60;;;17.40;29.90;;;22.98;21.89;101483.81;5119243;27;20243;-59
2023/03/15 10:16:57;;;;;;;6.73;2.70;;;17.50;30.30;;;23.67;21.37;101490.81;5112477;27;20265;-61
2023/03/15 10:19:38;;;;;;;4.00;1.77;;;17.80;30.20;;;24.13;20.96;101508.53;5116955;27;20223;-59
2023/03/15 10:22:24;;;;;;;11.80;2.67;;;18.10;29.30;;;23.63;21.92;101521.91;5104486;27;20291;-61
2023/03/15 10:24:58;;;;;;;14.57;3.37;;;17.90;31.60;;;22.54;23.39;101552.34;5112764;27;20400;-58
2023/03/15 10:27:36;;;;;;;3.72;1.60;;;17.60;32.80;;;22.00;24.41;101566.03;5102428;27;20982;-57
2023/03/15 10:30:16;;;;;;;2.93;1.33;;;17.00;34.30;;;20.84;26.23;101576.09;5111822;27;20854;-58